Burwash Airport
CYDB : now visible

Airfield :











YOU CAN JOIN US ON...

 
LOGIN :

Register | Disclaimer

   EN    FR    IT 

 









Legend :    VFR   Marginal VFR   IFR   Intensive IFR   Very Intensive IFR
Visi :
Ceiling :
>= 8 km
>= 3000ft
5 to 8 km
1000 to 3000 ft
1500m to 5 km
500 to 1000 ft
800 to 1500m
200 to 500 ft
< 800m
< 200 ft
Symbols :   Thunderstorms  Fog  Heavy snow  Heavy precipitations  Wind > 20 kt






- Airport Elevation : 2647 ft
- IATA code : YDB


CYDB - Burwash

CURRENT METAR :
  • 080200Z AUTO 04003KT 360V090 9SM SCT050 SCT100 BKN130 11/06 A2992 RMK SLP158 DENSITY ALT 2700FT

EXPIRED METARs :
  • 080120Z AUTO 31008KT 9SM BKN070 OVC083 10/06 A2991 RMK SLP156 DENSITY ALT 2700FT
  • 080104Z AUTO 30014KT 9SM -RA BKN065 OVC078 10/05 A2990 RMK SLP153 DENSITY ALT 2700FT
  • 080029Z 31009G16KT 260V330 20SM -SHRA FEW027 SCT040CB OVC070 12/09 A2990 RMK CU2CB2AC4 TS MVG E LTG CG E SLP153 DENSITY ALT 2900FT
  • 080000Z 32006KT 300V360 15SM -TSRA FEW028 BKN045CB OVC070 10/08 A2989 RMK CF1CB5AC2 OC LTGCG E PRESRR SLP150 DENSITY ALT 2800FT
  • 072338Z 36005KT 270V020 20SM -SHRA FEW030 BKN050TCU OVC090 13/08 A2987 RMK CF2TCU5AC1 DIST SH ALQDS SLP140 DENSITY ALT 3200FT

TAF AMD TAF CYDB
Valid from the 08 at 00:00 until the 08 at 12:00 UTC


080008Z 0800/0812 32006KT P6SM FEW030 BKN040
TEMPO 0800/0802 P6SM -TSRA SCT030 BKN040CB
FM080200 30005KT P6SM FEW020 SCT040 BKN120
TEMPO 0802/0812 P6SM -SHRA BKN020 BKN040 RMK NXT FCST BY 080600Z
CZEG FIR / North America



MET'MAP, your aeronautical weather chart ! - Copyright ORBIFLY December 2007 - Disclaimer

ORBIFLY MET'MAP TEAM :

Programming & Development : Alexandra Zaïnal
Concept & original design : Baudouin d'Aumeries
Assistance for programming : Marc-Olivier Méhu
Technical & hardware support : Manuel Goepfert

Contact : metmap@orbifly.com




SOURCES & CREDITS :

   NOAA       Earth
Advisory